sensor_id;sensor_type;location;lat;lon;timestamp;P1;durP1;ratioP1;P2;durP2;ratioP2
10687;SDS011;5392;42.688;23.298;2024-03-22T00:01:52;18.92;;;8.05;;
10687;SDS011;5392;42.688;23.298;2024-03-22T00:04:17;16.75;;;7.97;;
10687;SDS011;5392;42.688;23.298;2024-03-22T00:06:44;17.30;;;7.78;;
10687;SDS011;5392;42.688;23.298;2024-03-22T00:09:11;15.63;;;7.63;;
10687;SDS011;5392;42.688;23.298;2024-03-22T00:11:37;16.48;;;7.75;;
10687;SDS011;5392;42.688;23.298;2024-03-22T00:14:07;16.02;;;7.97;;
10687;SDS011;5392;42.688;23.298;2024-03-22T00:18:58;15.15;;;8.50;;
10687;SDS011;5392;42.688;23.298;2024-03-22T00:21:24;22.15;;;9.25;;
10687;SDS011;5392;42.688;23.298;2024-03-22T00:23:49;14.85;;;8.60;;
10687;SDS011;5392;42.688;23.298;2024-03-22T00:26:15;16.80;;;8.43;;
10687;SDS011;5392;42.688;23.298;2024-03-22T00:28:40;15.10;;;8.60;;
10687;SDS011;5392;42.688;23.298;2024-03-22T00:31:06;20.27;;;9.10;;
10687;SDS011;5392;42.688;23.298;2024-03-22T00:33:32;18.63;;;9.20;;
10687;SDS011;5392;42.688;23.298;2024-03-22T00:35:58;18.58;;;9.32;;
10687;SDS011;5392;42.688;23.298;2024-03-22T00:38:23;20.52;;;9.07;;
10687;SDS011;5392;42.688;23.298;2024-03-22T00:40:49;22.30;;;9.80;;
10687;SDS011;5392;42.688;23.298;2024-03-22T00:43:14;21.73;;;9.73;;
10687;SDS011;5392;42.688;23.298;2024-03-22T00:45:40;20.88;;;9.25;;
10687;SDS011;5392;42.688;23.298;2024-03-22T00:48:07;18.30;;;9.88;;
10687;SDS011;5392;42.688;23.298;2024-03-22T00:50:33;22.73;;;10.10;;
10687;SDS011;5392;42.688;23.298;2024-03-22T00:52:58;18.80;;;9.40;;
10687;SDS011;5392;42.688;23.298;2024-03-22T00:55:24;18.85;;;9.48;;
10687;SDS011;5392;42.688;23.298;2024-03-22T00:57:51;15.20;;;8.13;;
10687;SDS011;5392;42.688;23.298;2024-03-22T01:00:16;20.27;;;8.85;;
10687;SDS011;5392;42.688;23.298;2024-03-22T01:02:43;17.02;;;8.00;;
10687;SDS011;5392;42.688;23.298;2024-03-22T01:05:08;16.52;;;7.07;;
10687;SDS011;5392;42.688;23.298;2024-03-22T01:07:35;19.42;;;7.50;;
10687;SDS011;5392;42.688;23.298;2024-03-22T01:10:01;14.10;;;7.15;;
10687;SDS011;5392;42.688;23.298;2024-03-22T01:12:26;17.30;;;7.28;;
10687;SDS011;5392;42.688;23.298;2024-03-22T01:14:52;13.88;;;7.28;;
10687;SDS011;5392;42.688;23.298;2024-03-22T01:17:17;14.77;;;7.82;;
10687;SDS011;5392;42.688;23.298;2024-03-22T01:19:42;17.90;;;8.93;;
10687;SDS011;5392;42.688;23.298;2024-03-22T01:22:08;16.63;;;8.43;;
10687;SDS011;5392;42.688;23.298;2024-03-22T01:24:33;15.40;;;7.93;;
10687;SDS011;5392;42.688;23.298;2024-03-22T01:26:59;16.33;;;8.25;;
10687;SDS011;5392;42.688;23.298;2024-03-22T01:29:24;17.90;;;8.65;;
10687;SDS011;5392;42.688;23.298;2024-03-22T01:31:50;17.52;;;8.80;;
10687;SDS011;5392;42.688;23.298;2024-03-22T01:34:16;17.00;;;8.40;;
10687;SDS011;5392;42.688;23.298;2024-03-22T01:36:41;15.50;;;7.85;;
10687;SDS011;5392;42.688;23.298;2024-03-22T01:39:06;15.52;;;8.02;;
10687;SDS011;5392;42.688;23.298;2024-03-22T01:41:32;19.38;;;8.40;;
10687;SDS011;5392;42.688;23.298;2024-03-22T01:43:58;14.07;;;7.97;;
10687;SDS011;5392;42.688;23.298;2024-03-22T01:46:23;16.13;;;8.57;;
10687;SDS011;5392;42.688;23.298;2024-03-22T01:48:49;15.13;;;7.75;;
10687;SDS011;5392;42.688;23.298;2024-03-22T01:51:15;12.55;;;7.55;;
10687;SDS011;5392;42.688;23.298;2024-03-22T01:53:41;13.00;;;7.60;;
10687;SDS011;5392;42.688;23.298;2024-03-22T01:56:07;14.32;;;7.28;;
10687;SDS011;5392;42.688;23.298;2024-03-22T01:58:33;14.50;;;7.80;;
10687;SDS011;5392;42.688;23.298;2024-03-22T02:00:59;14.25;;;6.72;;
10687;SDS011;5392;42.688;23.298;2024-03-22T02:03:24;18.10;;;7.05;;
10687;SDS011;5392;42.688;23.298;2024-03-22T02:05:49;12.77;;;7.38;;
10687;SDS011;5392;42.688;23.298;2024-03-22T02:08:15;18.08;;;8.07;;
10687;SDS011;5392;42.688;23.298;2024-03-22T02:10:41;16.33;;;6.97;;
10687;SDS011;5392;42.688;23.298;2024-03-22T02:13:06;16.50;;;7.00;;
10687;SDS011;5392;42.688;23.298;2024-03-22T02:15:32;15.55;;;6.82;;
10687;SDS011;5392;42.688;23.298;2024-03-22T02:17:58;13.45;;;5.80;;
10687;SDS011;5392;42.688;23.298;2024-03-22T02:20:23;12.68;;;6.18;;
10687;SDS011;5392;42.688;23.298;2024-03-22T02:22:49;11.63;;;6.28;;
10687;SDS011;5392;42.688;23.298;2024-03-22T02:25:14;20.10;;;6.63;;
10687;SDS011;5392;42.688;23.298;2024-03-22T02:27:40;15.00;;;5.72;;
10687;SDS011;5392;42.688;23.298;2024-03-22T02:30:06;11.73;;;5.47;;
10687;SDS011;5392;42.688;23.298;2024-03-22T02:32:32;10.65;;;5.50;;
10687;SDS011;5392;42.688;23.298;2024-03-22T02:34:58;9.57;;;5.25;;
10687;SDS011;5392;42.688;23.298;2024-03-22T02:37:23;11.68;;;6.20;;
10687;SDS011;5392;42.688;23.298;2024-03-22T02:39:49;14.63;;;5.70;;
10687;SDS011;5392;42.688;23.298;2024-03-22T02:42:14;14.43;;;6.38;;
10687;SDS011;5392;42.688;23.298;2024-03-22T02:44:40;12.27;;;5.82;;
10687;SDS011;5392;42.688;23.298;2024-03-22T02:47:11;14.07;;;6.07;;
10687;SDS011;5392;42.688;23.298;2024-03-22T02:49:39;9.02;;;5.63;;
10687;SDS011;5392;42.688;23.298;2024-03-22T02:52:05;12.70;;;6.22;;
10687;SDS011;5392;42.688;23.298;2024-03-22T02:54:31;12.57;;;5.95;;
10687;SDS011;5392;42.688;23.298;2024-03-22T02:56:56;11.80;;;5.90;;
10687;SDS011;5392;42.688;23.298;2024-03-22T02:59:25;13.57;;;6.75;;
10687;SDS011;5392;42.688;23.298;2024-03-22T03:01:51;11.77;;;6.38;;
10687;SDS011;5392;42.688;23.298;2024-03-22T03:04:16;12.43;;;6.72;;
10687;SDS011;5392;42.688;23.298;2024-03-22T03:06:42;16.10;;;7.30;;
10687;SDS011;5392;42.688;23.298;2024-03-22T03:09:07;14.88;;;6.80;;
10687;SDS011;5392;42.688;23.298;2024-03-22T03:11:33;15.35;;;6.45;;
10687;SDS011;5392;42.688;23.298;2024-03-22T03:14:00;13.38;;;6.45;;
10687;SDS011;5392;42.688;23.298;2024-03-22T03:16:25;12.45;;;6.68;;
10687;SDS011;5392;42.688;23.298;2024-03-22T03:18:51;17.00;;;7.40;;
10687;SDS011;5392;42.688;23.298;2024-03-22T03:21:16;14.88;;;8.40;;
10687;SDS011;5392;42.688;23.298;2024-03-22T03:23:42;16.20;;;7.70;;
10687;SDS011;5392;42.688;23.298;2024-03-22T03:26:07;20.38;;;8.85;;
10687;SDS011;5392;42.688;23.298;2024-03-22T03:28:33;24.50;;;9.95;;
10687;SDS011;5392;42.688;23.298;2024-03-22T03:30:58;25.30;;;10.70;;
10687;SDS011;5392;42.688;23.298;2024-03-22T03:33:24;20.65;;;10.55;;
10687;SDS011;5392;42.688;23.298;2024-03-22T03:35:49;18.63;;;10.18;;
10687;SDS011;5392;42.688;23.298;2024-03-22T03:38:15;20.33;;;9.85;;
10687;SDS011;5392;42.688;23.298;2024-03-22T03:40:40;16.33;;;7.47;;
10687;SDS011;5392;42.688;23.298;2024-03-22T03:43:06;16.15;;;7.38;;
10687;SDS011;5392;42.688;23.298;2024-03-22T03:45:31;16.23;;;7.47;;
10687;SDS011;5392;42.688;23.298;2024-03-22T03:47:57;16.58;;;8.43;;
10687;SDS011;5392;42.688;23.298;2024-03-22T03:50:22;18.02;;;7.03;;
10687;SDS011;5392;42.688;23.298;2024-03-22T03:52:47;18.27;;;6.65;;
10687;SDS011;5392;42.688;23.298;2024-03-22T03:55:13;17.27;;;7.35;;
10687;SDS011;5392;42.688;23.298;2024-03-22T03:57:39;16.85;;;6.60;;
10687;SDS011;5392;42.688;23.298;2024-03-22T04:00:05;18.83;;;7.10;;
10687;SDS011;5392;42.688;23.298;2024-03-22T04:02:31;14.10;;;7.40;;
10687;SDS011;5392;42.688;23.298;2024-03-22T04:04:56;11.68;;;6.85;;
10687;SDS011;5392;42.688;23.298;2024-03-22T04:07:22;11.70;;;6.35;;
10687;SDS011;5392;42.688;23.298;2024-03-22T04:09:47;9.40;;;6.10;;
10687;SDS011;5392;42.688;23.298;2024-03-22T04:12:13;12.00;;;6.40;;
10687;SDS011;5392;42.688;23.298;2024-03-22T04:14:38;8.13;;;5.18;;
10687;SDS011;5392;42.688;23.298;2024-03-22T04:17:04;12.00;;;5.80;;
10687;SDS011;5392;42.688;23.298;2024-03-22T04:19:29;12.50;;;6.50;;
10687;SDS011;5392;42.688;23.298;2024-03-22T04:21:55;14.57;;;6.20;;
10687;SDS011;5392;42.688;23.298;2024-03-22T04:24:20;11.98;;;6.70;;
10687;SDS011;5392;42.688;23.298;2024-03-22T04:26:46;17.02;;;6.35;;
10687;SDS011;5392;42.688;23.298;2024-03-22T04:29:11;13.77;;;6.57;;
10687;SDS011;5392;42.688;23.298;2024-03-22T04:31:37;18.33;;;8.38;;
10687;SDS011;5392;42.688;23.298;2024-03-22T04:34:02;17.42;;;7.57;;
10687;SDS011;5392;42.688;23.298;2024-03-22T04:36:28;21.50;;;8.57;;
10687;SDS011;5392;42.688;23.298;2024-03-22T04:38:53;14.85;;;7.05;;
10687;SDS011;5392;42.688;23.298;2024-03-22T04:41:19;12.60;;;6.35;;
10687;SDS011;5392;42.688;23.298;2024-03-22T04:43:44;13.63;;;7.50;;
10687;SDS011;5392;42.688;23.298;2024-03-22T04:46:10;11.65;;;6.40;;
10687;SDS011;5392;42.688;23.298;2024-03-22T04:48:35;14.52;;;7.53;;
10687;SDS011;5392;42.688;23.298;2024-03-22T04:51:01;17.23;;;9.05;;
10687;SDS011;5392;42.688;23.298;2024-03-22T04:53:26;26.98;;;10.30;;
10687;SDS011;5392;42.688;23.298;2024-03-22T04:55:52;23.88;;;10.60;;
10687;SDS011;5392;42.688;23.298;2024-03-22T04:58:18;23.33;;;9.50;;
10687;SDS011;5392;42.688;23.298;2024-03-22T05:00:45;16.75;;;8.68;;
10687;SDS011;5392;42.688;23.298;2024-03-22T05:03:12;18.63;;;8.40;;
10687;SDS011;5392;42.688;23.298;2024-03-22T05:05:38;24.92;;;8.55;;
10687;SDS011;5392;42.688;23.298;2024-03-22T05:08:04;20.95;;;9.90;;
10687;SDS011;5392;42.688;23.298;2024-03-22T05:10:30;17.25;;;8.93;;
10687;SDS011;5392;42.688;23.298;2024-03-22T05:12:56;23.52;;;10.73;;
10687;SDS011;5392;42.688;23.298;2024-03-22T05:15:22;22.50;;;9.35;;
10687;SDS011;5392;42.688;23.298;2024-03-22T05:17:50;19.85;;;10.25;;
10687;SDS011;5392;42.688;23.298;2024-03-22T05:20:16;22.23;;;9.60;;
10687;SDS011;5392;42.688;23.298;2024-03-22T05:22:42;22.70;;;10.68;;
10687;SDS011;5392;42.688;23.298;2024-03-22T05:25:08;27.10;;;12.50;;
10687;SDS011;5392;42.688;23.298;2024-03-22T05:32:25;16.00;;;9.17;;
10687;SDS011;5392;42.688;23.298;2024-03-22T05:39:42;27.92;;;9.82;;
10687;SDS011;5392;42.688;23.298;2024-03-22T05:44:32;19.75;;;9.63;;
10687;SDS011;5392;42.688;23.298;2024-03-22T05:49:23;20.67;;;11.00;;
10687;SDS011;5392;42.688;23.298;2024-03-22T05:51:49;20.58;;;10.05;;
10687;SDS011;5392;42.688;23.298;2024-03-22T05:54:14;22.92;;;10.70;;
10687;SDS011;5392;42.688;23.298;2024-03-22T05:59:05;20.00;;;9.97;;
10687;SDS011;5392;42.688;23.298;2024-03-22T06:01:31;28.08;;;12.13;;
10687;SDS011;5392;42.688;23.298;2024-03-22T06:03:57;24.02;;;12.35;;
10687;SDS011;5392;42.688;23.298;2024-03-22T06:06:23;25.23;;;11.68;;
10687;SDS011;5392;42.688;23.298;2024-03-22T06:08:52;27.27;;;10.88;;
10687;SDS011;5392;42.688;23.298;2024-03-22T06:11:19;23.33;;;11.93;;
10687;SDS011;5392;42.688;23.298;2024-03-22T06:13:46;24.60;;;11.63;;
10687;SDS011;5392;42.688;23.298;2024-03-22T06:16:11;31.15;;;11.48;;
10687;SDS011;5392;42.688;23.298;2024-03-22T06:18:37;19.58;;;10.50;;
10687;SDS011;5392;42.688;23.298;2024-03-22T06:21:03;18.45;;;10.65;;
10687;SDS011;5392;42.688;23.298;2024-03-22T06:23:30;28.80;;;12.13;;
10687;SDS011;5392;42.688;23.298;2024-03-22T06:25:56;23.20;;;10.85;;
10687;SDS011;5392;42.688;23.298;2024-03-22T06:28:21;19.95;;;11.18;;
10687;SDS011;5392;42.688;23.298;2024-03-22T06:30:48;23.13;;;10.55;;
10687;SDS011;5392;42.688;23.298;2024-03-22T06:33:14;16.65;;;10.25;;
10687;SDS011;5392;42.688;23.298;2024-03-22T06:35:43;16.33;;;9.88;;
10687;SDS011;5392;42.688;23.298;2024-03-22T06:38:08;22.65;;;9.70;;
10687;SDS011;5392;42.688;23.298;2024-03-22T06:40:34;15.75;;;9.32;;
10687;SDS011;5392;42.688;23.298;2024-03-22T06:43:00;17.08;;;9.50;;
10687;SDS011;5392;42.688;23.298;2024-03-22T06:45:26;19.90;;;10.48;;
10687;SDS011;5392;42.688;23.298;2024-03-22T06:47:51;20.33;;;9.75;;
10687;SDS011;5392;42.688;23.298;2024-03-22T06:50:17;18.15;;;9.48;;
10687;SDS011;5392;42.688;23.298;2024-03-22T06:52:49;14.13;;;8.70;;
10687;SDS011;5392;42.688;23.298;2024-03-22T06:55:16;17.05;;;9.52;;
10687;SDS011;5392;42.688;23.298;2024-03-22T06:57:42;14.73;;;9.15;;
10687;SDS011;5392;42.688;23.298;2024-03-22T07:00:10;20.48;;;9.93;;
10687;SDS011;5392;42.688;23.298;2024-03-22T07:02:36;18.27;;;9.27;;
10687;SDS011;5392;42.688;23.298;2024-03-22T07:05:02;18.80;;;10.40;;
10687;SDS011;5392;42.688;23.298;2024-03-22T07:07:29;13.00;;;8.82;;
10687;SDS011;5392;42.688;23.298;2024-03-22T07:09:54;16.10;;;9.63;;
10687;SDS011;5392;42.688;23.298;2024-03-22T07:12:20;19.73;;;10.13;;
10687;SDS011;5392;42.688;23.298;2024-03-22T07:14:45;20.50;;;11.25;;
10687;SDS011;5392;42.688;23.298;2024-03-22T07:17:10;17.98;;;10.32;;
10687;SDS011;5392;42.688;23.298;2024-03-22T07:19:36;19.45;;;11.00;;
10687;SDS011;5392;42.688;23.298;2024-03-22T07:22:02;20.17;;;10.70;;
10687;SDS011;5392;42.688;23.298;2024-03-22T07:24:27;20.77;;;10.38;;
10687;SDS011;5392;42.688;23.298;2024-03-22T07:26:53;22.20;;;10.52;;
10687;SDS011;5392;42.688;23.298;2024-03-22T07:29:18;17.98;;;10.13;;
10687;SDS011;5392;42.688;23.298;2024-03-22T07:31:44;23.10;;;10.38;;
10687;SDS011;5392;42.688;23.298;2024-03-22T07:34:10;19.83;;;10.48;;
10687;SDS011;5392;42.688;23.298;2024-03-22T07:36:39;23.80;;;10.55;;
10687;SDS011;5392;42.688;23.298;2024-03-22T07:39:05;19.08;;;9.93;;
10687;SDS011;5392;42.688;23.298;2024-03-22T07:41:33;16.80;;;8.80;;
10687;SDS011;5392;42.688;23.298;2024-03-22T07:43:59;15.80;;;9.10;;
10687;SDS011;5392;42.688;23.298;2024-03-22T07:46:26;15.95;;;6.65;;
10687;SDS011;5392;42.688;23.298;2024-03-22T07:48:51;9.50;;;6.80;;
10687;SDS011;5392;42.688;23.298;2024-03-22T07:51:17;10.88;;;6.53;;
10687;SDS011;5392;42.688;23.298;2024-03-22T07:53:43;16.67;;;7.03;;
10687;SDS011;5392;42.688;23.298;2024-03-22T07:56:08;6.60;;;4.53;;
10687;SDS011;5392;42.688;23.298;2024-03-22T07:58:34;8.45;;;5.55;;
10687;SDS011;5392;42.688;23.298;2024-03-22T08:00:59;11.40;;;6.07;;
10687;SDS011;5392;42.688;23.298;2024-03-22T08:03:25;7.75;;;5.30;;
10687;SDS011;5392;42.688;23.298;2024-03-22T08:05:50;8.90;;;4.88;;
10687;SDS011;5392;42.688;23.298;2024-03-22T08:08:15;7.85;;;4.25;;
10687;SDS011;5392;42.688;23.298;2024-03-22T08:10:41;6.63;;;3.90;;
10687;SDS011;5392;42.688;23.298;2024-03-22T08:13:07;5.00;;;3.22;;
10687;SDS011;5392;42.688;23.298;2024-03-22T08:15:32;7.30;;;4.50;;
10687;SDS011;5392;42.688;23.298;2024-03-22T08:17:58;5.32;;;4.00;;
10687;SDS011;5392;42.688;23.298;2024-03-22T08:20:23;5.75;;;3.35;;
10687;SDS011;5392;42.688;23.298;2024-03-22T08:22:49;7.43;;;3.50;;
10687;SDS011;5392;42.688;23.298;2024-03-22T08:25:15;4.40;;;3.30;;
10687;SDS011;5392;42.688;23.298;2024-03-22T08:27:43;5.60;;;3.35;;
10687;SDS011;5392;42.688;23.298;2024-03-22T08:30:09;4.20;;;3.38;;
10687;SDS011;5392;42.688;23.298;2024-03-22T08:32:35;4.35;;;3.17;;
10687;SDS011;5392;42.688;23.298;2024-03-22T08:35:02;4.00;;;3.03;;
10687;SDS011;5392;42.688;23.298;2024-03-22T08:37:29;5.15;;;3.00;;
10687;SDS011;5392;42.688;23.298;2024-03-22T08:39:55;5.28;;;3.30;;
10687;SDS011;5392;42.688;23.298;2024-03-22T08:42:20;4.43;;;3.30;;
10687;SDS011;5392;42.688;23.298;2024-03-22T08:44:46;5.20;;;3.30;;
10687;SDS011;5392;42.688;23.298;2024-03-22T08:47:11;4.07;;;3.53;;
10687;SDS011;5392;42.688;23.298;2024-03-22T08:49:37;4.97;;;3.17;;
10687;SDS011;5392;42.688;23.298;2024-03-22T08:52:02;3.70;;;3.22;;
10687;SDS011;5392;42.688;23.298;2024-03-22T08:54:28;6.43;;;3.50;;
10687;SDS011;5392;42.688;23.298;2024-03-22T08:56:59;4.68;;;3.85;;
10687;SDS011;5392;42.688;23.298;2024-03-22T08:59:33;4.43;;;3.15;;
10687;SDS011;5392;42.688;23.298;2024-03-22T09:02:01;6.93;;;4.10;;
10687;SDS011;5392;42.688;23.298;2024-03-22T09:04:26;3.95;;;3.15;;
10687;SDS011;5392;42.688;23.298;2024-03-22T09:06:52;6.55;;;3.83;;
10687;SDS011;5392;42.688;23.298;2024-03-22T09:11:43;4.23;;;3.47;;
10687;SDS011;5392;42.688;23.298;2024-03-22T09:16:34;4.72;;;3.50;;
10687;SDS011;5392;42.688;23.298;2024-03-22T09:18:59;4.30;;;2.85;;
10687;SDS011;5392;42.688;23.298;2024-03-22T09:21:25;4.32;;;3.50;;
10687;SDS011;5392;42.688;23.298;2024-03-22T09:23:50;5.38;;;3.28;;
10687;SDS011;5392;42.688;23.298;2024-03-22T09:28:41;4.43;;;2.87;;
10687;SDS011;5392;42.688;23.298;2024-03-22T09:31:07;5.25;;;2.60;;
10687;SDS011;5392;42.688;23.298;2024-03-22T09:35:58;3.42;;;2.63;;
10687;SDS011;5392;42.688;23.298;2024-03-22T09:38:24;2.80;;;2.45;;
10687;SDS011;5392;42.688;23.298;2024-03-22T09:40:50;6.53;;;3.25;;
10687;SDS011;5392;42.688;23.298;2024-03-22T09:43:19;5.13;;;2.95;;
10687;SDS011;5392;42.688;23.298;2024-03-22T09:45:46;5.82;;;3.00;;
10687;SDS011;5392;42.688;23.298;2024-03-22T09:48:13;5.57;;;2.70;;
10687;SDS011;5392;42.688;23.298;2024-03-22T09:53:05;4.38;;;2.72;;
10687;SDS011;5392;42.688;23.298;2024-03-22T09:55:33;4.03;;;3.10;;
10687;SDS011;5392;42.688;23.298;2024-03-22T09:58:01;4.32;;;3.53;;
10687;SDS011;5392;42.688;23.298;2024-03-22T10:02:52;5.38;;;3.00;;
10687;SDS011;5392;42.688;23.298;2024-03-22T10:05:19;3.33;;;2.78;;
10687;SDS011;5392;42.688;23.298;2024-03-22T10:07:44;6.18;;;2.95;;
10687;SDS011;5392;42.688;23.298;2024-03-22T10:12:35;5.85;;;3.83;;
10687;SDS011;5392;42.688;23.298;2024-03-22T10:19:53;3.10;;;2.80;;
10687;SDS011;5392;42.688;23.298;2024-03-22T10:24:44;6.50;;;3.35;;
10687;SDS011;5392;42.688;23.298;2024-03-22T10:27:10;2.70;;;2.40;;
10687;SDS011;5392;42.688;23.298;2024-03-22T10:32:01;4.80;;;2.97;;
10687;SDS011;5392;42.688;23.298;2024-03-22T10:34:27;5.00;;;3.15;;
10687;SDS011;5392;42.688;23.298;2024-03-22T10:36:55;4.20;;;2.92;;
10687;SDS011;5392;42.688;23.298;2024-03-22T10:39:23;4.53;;;2.92;;
10687;SDS011;5392;42.688;23.298;2024-03-22T10:41:50;3.72;;;2.70;;
10687;SDS011;5392;42.688;23.298;2024-03-22T10:46:50;4.45;;;3.35;;
10687;SDS011;5392;42.688;23.298;2024-03-22T10:49:19;5.05;;;3.03;;
10687;SDS011;5392;42.688;23.298;2024-03-22T10:51:58;4.35;;;2.95;;
10687;SDS011;5392;42.688;23.298;2024-03-22T10:54:34;3.25;;;2.50;;
10687;SDS011;5392;42.688;23.298;2024-03-22T10:57:03;4.40;;;2.90;;
10687;SDS011;5392;42.688;23.298;2024-03-22T10:59:34;4.85;;;2.83;;
10687;SDS011;5392;42.688;23.298;2024-03-22T11:02:05;2.63;;;2.42;;
10687;SDS011;5392;42.688;23.298;2024-03-22T11:04:32;3.35;;;2.53;;
10687;SDS011;5392;42.688;23.298;2024-03-22T11:06:59;4.53;;;3.00;;
10687;SDS011;5392;42.688;23.298;2024-03-22T11:09:25;3.00;;;2.28;;
10687;SDS011;5392;42.688;23.298;2024-03-22T11:11:52;3.33;;;2.38;;
10687;SDS011;5392;42.688;23.298;2024-03-22T11:14:18;6.35;;;3.53;;
10687;SDS011;5392;42.688;23.298;2024-03-22T11:16:45;3.67;;;3.08;;
10687;SDS011;5392;42.688;23.298;2024-03-22T11:24:02;5.75;;;3.13;;
10687;SDS011;5392;42.688;23.298;2024-03-22T11:26:29;3.95;;;2.70;;
10687;SDS011;5392;42.688;23.298;2024-03-22T11:31:20;4.47;;;3.23;;
10687;SDS011;5392;42.688;23.298;2024-03-22T11:33:50;4.07;;;2.88;;
10687;SDS011;5392;42.688;23.298;2024-03-22T11:36:17;3.28;;;2.95;;
10687;SDS011;5392;42.688;23.298;2024-03-22T11:41:08;4.47;;;3.60;;
10687;SDS011;5392;42.688;23.298;2024-03-22T11:43:36;4.30;;;3.13;;
10687;SDS011;5392;42.688;23.298;2024-03-22T11:46:02;4.88;;;3.38;;
10687;SDS011;5392;42.688;23.298;2024-03-22T11:48:27;4.07;;;2.55;;
10687;SDS011;5392;42.688;23.298;2024-03-22T11:50:53;3.47;;;2.50;;
10687;SDS011;5392;42.688;23.298;2024-03-22T11:53:20;7.07;;;3.13;;
10687;SDS011;5392;42.688;23.298;2024-03-22T11:58:14;6.43;;;2.72;;
10687;SDS011;5392;42.688;23.298;2024-03-22T12:03:05;3.43;;;2.47;;
10687;SDS011;5392;42.688;23.298;2024-03-22T12:05:33;3.15;;;2.50;;
10687;SDS011;5392;42.688;23.298;2024-03-22T12:10:24;3.77;;;2.60;;
10687;SDS011;5392;42.688;23.298;2024-03-22T12:12:50;4.88;;;2.85;;
10687;SDS011;5392;42.688;23.298;2024-03-22T12:15:18;3.42;;;2.58;;
10687;SDS011;5392;42.688;23.298;2024-03-22T12:17:44;3.40;;;2.50;;
10687;SDS011;5392;42.688;23.298;2024-03-22T12:22:35;4.03;;;2.42;;
10687;SDS011;5392;42.688;23.298;2024-03-22T12:27:26;3.72;;;2.45;;
10687;SDS011;5392;42.688;23.298;2024-03-22T12:32:17;3.37;;;2.30;;
10687;SDS011;5392;42.688;23.298;2024-03-22T12:37:08;3.78;;;2.55;;
10687;SDS011;5392;42.688;23.298;2024-03-22T12:39:35;3.72;;;2.83;;
10687;SDS011;5392;42.688;23.298;2024-03-22T12:42:02;3.03;;;2.50;;
10687;SDS011;5392;42.688;23.298;2024-03-22T12:46:53;3.35;;;2.90;;
10687;SDS011;5392;42.688;23.298;2024-03-22T12:49:19;3.78;;;2.70;;
10687;SDS011;5392;42.688;23.298;2024-03-22T12:54:10;3.60;;;2.33;;
10687;SDS011;5392;42.688;23.298;2024-03-22T12:59:04;5.80;;;2.90;;
10687;SDS011;5392;42.688;23.298;2024-03-22T13:01:29;4.88;;;2.90;;
10687;SDS011;5392;42.688;23.298;2024-03-22T13:03:55;3.17;;;2.50;;
10687;SDS011;5392;42.688;23.298;2024-03-22T13:11:12;3.20;;;2.80;;
10687;SDS011;5392;42.688;23.298;2024-03-22T13:13:39;4.18;;;2.95;;
10687;SDS011;5392;42.688;23.298;2024-03-22T13:18:31;3.35;;;2.30;;
10687;SDS011;5392;42.688;23.298;2024-03-22T13:20:57;3.65;;;2.55;;
10687;SDS011;5392;42.688;23.298;2024-03-22T13:25:48;4.22;;;2.50;;
10687;SDS011;5392;42.688;23.298;2024-03-22T13:30:39;2.95;;;2.65;;
10687;SDS011;5392;42.688;23.298;2024-03-22T13:35:33;3.03;;;2.72;;
10687;SDS011;5392;42.688;23.298;2024-03-22T13:40:25;2.95;;;2.60;;
10687;SDS011;5392;42.688;23.298;2024-03-22T13:42:54;3.60;;;2.47;;
10687;SDS011;5392;42.688;23.298;2024-03-22T13:45:19;5.20;;;2.53;;
10687;SDS011;5392;42.688;23.298;2024-03-22T13:47:45;4.63;;;2.40;;
10687;SDS011;5392;42.688;23.298;2024-03-22T13:50:11;2.75;;;2.35;;
10687;SDS011;5392;42.688;23.298;2024-03-22T13:52:37;4.97;;;3.30;;
10687;SDS011;5392;42.688;23.298;2024-03-22T13:55:03;3.22;;;2.90;;
10687;SDS011;5392;42.688;23.298;2024-03-22T13:57:29;3.50;;;3.10;;
10687;SDS011;5392;42.688;23.298;2024-03-22T13:59:55;4.07;;;2.67;;
10687;SDS011;5392;42.688;23.298;2024-03-22T14:02:20;4.13;;;3.08;;
10687;SDS011;5392;42.688;23.298;2024-03-22T14:07:12;3.95;;;2.95;;
10687;SDS011;5392;42.688;23.298;2024-03-22T14:12:04;5.93;;;3.15;;
10687;SDS011;5392;42.688;23.298;2024-03-22T14:14:30;5.50;;;2.65;;
10687;SDS011;5392;42.688;23.298;2024-03-22T14:16:55;4.38;;;3.13;;
10687;SDS011;5392;42.688;23.298;2024-03-22T14:19:21;5.55;;;3.50;;
10687;SDS011;5392;42.688;23.298;2024-03-22T14:21:46;4.85;;;2.80;;
10687;SDS011;5392;42.688;23.298;2024-03-22T14:24:12;3.83;;;2.83;;
10687;SDS011;5392;42.688;23.298;2024-03-22T14:26:38;3.58;;;2.70;;
10687;SDS011;5392;42.688;23.298;2024-03-22T14:29:13;4.85;;;3.17;;
10687;SDS011;5392;42.688;23.298;2024-03-22T14:31:38;3.55;;;2.85;;
10687;SDS011;5392;42.688;23.298;2024-03-22T14:34:07;5.57;;;2.80;;
10687;SDS011;5392;42.688;23.298;2024-03-22T14:36:33;3.55;;;2.85;;
10687;SDS011;5392;42.688;23.298;2024-03-22T14:38:58;6.15;;;2.85;;
10687;SDS011;5392;42.688;23.298;2024-03-22T14:43:49;4.07;;;3.05;;
10687;SDS011;5392;42.688;23.298;2024-03-22T14:46:16;3.80;;;2.70;;
10687;SDS011;5392;42.688;23.298;2024-03-22T14:48:49;3.65;;;2.63;;
10687;SDS011;5392;42.688;23.298;2024-03-22T14:51:15;3.78;;;2.60;;
10687;SDS011;5392;42.688;23.298;2024-03-22T14:53:40;4.38;;;3.13;;
10687;SDS011;5392;42.688;23.298;2024-03-22T14:58:33;7.00;;;3.20;;
10687;SDS011;5392;42.688;23.298;2024-03-22T15:01:00;3.78;;;2.83;;
10687;SDS011;5392;42.688;23.298;2024-03-22T15:03:27;5.05;;;2.95;;
10687;SDS011;5392;42.688;23.298;2024-03-22T15:05:56;3.10;;;2.80;;
10687;SDS011;5392;42.688;23.298;2024-03-22T15:08:24;6.35;;;3.30;;
10687;SDS011;5392;42.688;23.298;2024-03-22T15:10:50;5.32;;;3.08;;
10687;SDS011;5392;42.688;23.298;2024-03-22T15:15:41;6.05;;;3.13;;
10687;SDS011;5392;42.688;23.298;2024-03-22T15:18:08;7.88;;;3.22;;
10687;SDS011;5392;42.688;23.298;2024-03-22T15:20:35;3.35;;;2.95;;
10687;SDS011;5392;42.688;23.298;2024-03-22T15:23:01;3.40;;;2.55;;
10687;SDS011;5392;42.688;23.298;2024-03-22T15:25:27;3.42;;;2.95;;
10687;SDS011;5392;42.688;23.298;2024-03-22T15:30:18;5.47;;;2.60;;
10687;SDS011;5392;42.688;23.298;2024-03-22T15:35:10;7.75;;;2.83;;
10687;SDS011;5392;42.688;23.298;2024-03-22T15:37:38;5.55;;;2.80;;
10687;SDS011;5392;42.688;23.298;2024-03-22T15:40:07;5.65;;;3.40;;
10687;SDS011;5392;42.688;23.298;2024-03-22T15:42:36;4.78;;;2.97;;
10687;SDS011;5392;42.688;23.298;2024-03-22T15:47:29;3.97;;;2.60;;
10687;SDS011;5392;42.688;23.298;2024-03-22T15:49:55;4.05;;;2.90;;
10687;SDS011;5392;42.688;23.298;2024-03-22T15:54:46;2.73;;;2.27;;
10687;SDS011;5392;42.688;23.298;2024-03-22T15:57:11;4.32;;;2.70;;
10687;SDS011;5392;42.688;23.298;2024-03-22T15:59:37;4.60;;;2.92;;
10687;SDS011;5392;42.688;23.298;2024-03-22T16:04:29;2.90;;;2.08;;
10687;SDS011;5392;42.688;23.298;2024-03-22T16:06:55;5.70;;;2.70;;
10687;SDS011;5392;42.688;23.298;2024-03-22T16:11:46;7.15;;;2.80;;
10687;SDS011;5392;42.688;23.298;2024-03-22T16:16:37;2.83;;;2.58;;
10687;SDS011;5392;42.688;23.298;2024-03-22T16:21:28;4.32;;;3.05;;
10687;SDS011;5392;42.688;23.298;2024-03-22T16:23:54;4.63;;;2.90;;
10687;SDS011;5392;42.688;23.298;2024-03-22T16:28:45;4.95;;;3.28;;
10687;SDS011;5392;42.688;23.298;2024-03-22T16:33:36;4.50;;;3.17;;
10687;SDS011;5392;42.688;23.298;2024-03-22T16:36:01;4.40;;;2.92;;
10687;SDS011;5392;42.688;23.298;2024-03-22T16:38:27;4.70;;;2.60;;
10687;SDS011;5392;42.688;23.298;2024-03-22T16:40:53;6.25;;;3.95;;
10687;SDS011;5392;42.688;23.298;2024-03-22T16:43:18;4.55;;;3.45;;
10687;SDS011;5392;42.688;23.298;2024-03-22T16:45:45;5.47;;;3.50;;
10687;SDS011;5392;42.688;23.298;2024-03-22T16:48:11;8.00;;;4.07;;
10687;SDS011;5392;42.688;23.298;2024-03-22T16:50:37;4.57;;;3.05;;